sensor_id;sensor_type;location;lat;lon;timestamp;pressure;altitude;pressure_sealevel;temperature;humidity
33163;BME280;29282;45.656;11.302;2023-07-24T00:01:21;98312.25;;;25.73;54.78
33163;BME280;29282;45.656;11.302;2023-07-24T00:03:46;98315.38;;;25.68;54.99
33163;BME280;29282;45.656;11.302;2023-07-24T00:06:12;98309.38;;;25.62;55.28
33163;BME280;29282;45.656;11.302;2023-07-24T00:08:38;98311.41;;;25.69;55.19
33163;BME280;29282;45.656;11.302;2023-07-24T00:11:07;98311.84;;;25.71;54.93
33163;BME280;29282;45.656;11.302;2023-07-24T00:13:32;98314.66;;;25.74;55.06
33163;BME280;29282;45.656;11.302;2023-07-24T00:15:58;98319.78;;;25.76;54.88
33163;BME280;29282;45.656;11.302;2023-07-24T00:18:23;98315.84;;;25.73;54.81
33163;BME280;29282;45.656;11.302;2023-07-24T00:20:49;98319.75;;;25.72;54.80
33163;BME280;29282;45.656;11.302;2023-07-24T00:23:14;98318.97;;;25.72;55.04
33163;BME280;29282;45.656;11.302;2023-07-24T00:25:40;98320.97;;;25.71;54.89
33163;BME280;29282;45.656;11.302;2023-07-24T00:28:05;98314.56;;;25.64;55.43
33163;BME280;29282;45.656;11.302;2023-07-24T00:30:31;98309.03;;;25.67;55.21
33163;BME280;29282;45.656;11.302;2023-07-24T00:32:56;98303.41;;;25.57;55.49
33163;BME280;29282;45.656;11.302;2023-07-24T00:35:22;98300.28;;;25.65;55.34
33163;BME280;29282;45.656;11.302;2023-07-24T00:37:48;98300.31;;;25.69;55.25
33163;BME280;29282;45.656;11.302;2023-07-24T00:40:13;98297.56;;;25.72;54.98
33163;BME280;29282;45.656;11.302;2023-07-24T00:42:39;98295.22;;;25.74;55.05
33163;BME280;29282;45.656;11.302;2023-07-24T00:45:04;98290.44;;;25.71;55.31
33163;BME280;29282;45.656;11.302;2023-07-24T00:47:30;98293.22;;;25.71;55.10
33163;BME280;29282;45.656;11.302;2023-07-24T00:49:56;98296.72;;;25.65;55.44
33163;BME280;29282;45.656;11.302;2023-07-24T00:52:22;98287.19;;;25.66;55.25
33163;BME280;29282;45.656;11.302;2023-07-24T00:54:49;98291.19;;;25.68;55.23
33163;BME280;29282;45.656;11.302;2023-07-24T00:57:15;98294.41;;;25.70;55.22
33163;BME280;29282;45.656;11.302;2023-07-24T00:59:41;98288.09;;;25.73;55.08
33163;BME280;29282;45.656;11.302;2023-07-24T01:02:07;98284.13;;;25.74;54.94
33163;BME280;29282;45.656;11.302;2023-07-24T01:04:33;98282.53;;;25.73;55.04
33163;BME280;29282;45.656;11.302;2023-07-24T01:06:59;98273.03;;;25.74;54.79
33163;BME280;29282;45.656;11.302;2023-07-24T01:09:25;98269.06;;;25.75;54.92
33163;BME280;29282;45.656;11.302;2023-07-24T01:11:57;98269.84;;;25.76;55.17
33163;BME280;29282;45.656;11.302;2023-07-24T01:14:32;98271.47;;;25.77;55.09
33163;BME280;29282;45.656;11.302;2023-07-24T01:17:00;98273.03;;;25.74;55.18
33163;BME280;29282;45.656;11.302;2023-07-24T01:19:40;98275.78;;;25.74;55.16
33163;BME280;29282;45.656;11.302;2023-07-24T01:22:15;98274.53;;;25.68;55.42
33163;BME280;29282;45.656;11.302;2023-07-24T01:27:42;98269.75;;;25.65;55.35
33163;BME280;29282;45.656;11.302;2023-07-24T01:30:08;98261.41;;;25.62;55.39
33163;BME280;29282;45.656;11.302;2023-07-24T01:32:34;98260.22;;;25.63;55.54
33163;BME280;29282;45.656;11.302;2023-07-24T01:34:59;98262.22;;;25.62;55.58
33163;BME280;29282;45.656;11.302;2023-07-24T01:37:28;98262.91;;;25.52;56.13
33163;BME280;29282;45.656;11.302;2023-07-24T01:39:55;98260.09;;;25.48;56.37
33163;BME280;29282;45.656;11.302;2023-07-24T01:42:22;98266.94;;;25.58;55.77
33163;BME280;29282;45.656;11.302;2023-07-24T01:44:52;98264.97;;;25.62;55.59
33163;BME280;29282;45.656;11.302;2023-07-24T01:47:18;98261.06;;;25.67;55.66
33163;BME280;29282;45.656;11.302;2023-07-24T01:49:43;98272.16;;;25.63;55.67
33163;BME280;29282;45.656;11.302;2023-07-24T01:52:09;98264.16;;;25.58;55.79
33163;BME280;29282;45.656;11.302;2023-07-24T01:54:34;98262.50;;;25.46;56.43
33163;BME280;29282;45.656;11.302;2023-07-24T01:57:00;98252.25;;;25.54;55.88
33163;BME280;29282;45.656;11.302;2023-07-24T01:59:25;98257.84;;;25.61;55.84
33163;BME280;29282;45.656;11.302;2023-07-24T02:01:51;98254.63;;;25.55;55.94
33163;BME280;29282;45.656;11.302;2023-07-24T02:04:16;98256.94;;;25.46;56.29
33163;BME280;29282;45.656;11.302;2023-07-24T02:06:42;98254.19;;;25.50;56.24
33163;BME280;29282;45.656;11.302;2023-07-24T02:09:07;98247.50;;;25.58;55.96
33163;BME280;29282;45.656;11.302;2023-07-24T02:11:33;98241.94;;;25.54;55.92
33163;BME280;29282;45.656;11.302;2023-07-24T02:13:59;98237.19;;;25.55;56.05
33163;BME280;29282;45.656;11.302;2023-07-24T02:16:27;98243.97;;;25.61;55.61
33163;BME280;29282;45.656;11.302;2023-07-24T02:18:53;98245.16;;;25.60;55.70
33163;BME280;29282;45.656;11.302;2023-07-24T02:21:18;98248.34;;;25.62;55.63
33163;BME280;29282;45.656;11.302;2023-07-24T02:23:44;98254.28;;;25.61;55.67
33163;BME280;29282;45.656;11.302;2023-07-24T02:26:09;98249.13;;;25.63;55.69
33163;BME280;29282;45.656;11.302;2023-07-24T02:28:35;98247.50;;;25.58;55.99
33163;BME280;29282;45.656;11.302;2023-07-24T02:31:00;98243.88;;;25.47;56.26
33163;BME280;29282;45.656;11.302;2023-07-24T02:33:26;98244.72;;;25.54;56.11
33163;BME280;29282;45.656;11.302;2023-07-24T02:35:52;98241.97;;;25.58;55.87
33163;BME280;29282;45.656;11.302;2023-07-24T02:38:18;98242.78;;;25.62;55.78
33163;BME280;29282;45.656;11.302;2023-07-24T02:40:46;98246.78;;;25.65;55.57
33163;BME280;29282;45.656;11.302;2023-07-24T02:43:11;98237.25;;;25.66;55.33
33163;BME280;29282;45.656;11.302;2023-07-24T02:45:37;98233.31;;;25.67;55.50
33163;BME280;29282;45.656;11.302;2023-07-24T02:48:03;98222.22;;;25.67;55.36
33163;BME280;29282;45.656;11.302;2023-07-24T02:50:29;98223.03;;;25.67;55.52
33163;BME280;29282;45.656;11.302;2023-07-24T02:52:54;98219.84;;;25.69;55.37
33163;BME280;29282;45.656;11.302;2023-07-24T02:55:20;98212.31;;;25.69;55.46
33163;BME280;29282;45.656;11.302;2023-07-24T02:57:45;98207.94;;;25.65;55.52
33163;BME280;29282;45.656;11.302;2023-07-24T03:00:11;98220.59;;;25.62;55.88
33163;BME280;29282;45.656;11.302;2023-07-24T03:02:38;98217.03;;;25.65;55.57
33163;BME280;29282;45.656;11.302;2023-07-24T03:05:04;98207.47;;;25.55;56.01
33163;BME280;29282;45.656;11.302;2023-07-24T03:07:29;98198.75;;;25.57;55.86
33163;BME280;29282;45.656;11.302;2023-07-24T03:09:55;98199.97;;;25.60;55.65
33163;BME280;29282;45.656;11.302;2023-07-24T03:12:21;98185.28;;;25.59;55.78
33163;BME280;29282;45.656;11.302;2023-07-24T03:14:46;98180.13;;;25.58;55.73
33163;BME280;29282;45.656;11.302;2023-07-24T03:17:12;98189.28;;;25.62;55.69
33163;BME280;29282;45.656;11.302;2023-07-24T03:19:38;98192.47;;;25.64;55.68
33163;BME280;29282;45.656;11.302;2023-07-24T03:22:06;98189.69;;;25.60;55.97
33163;BME280;29282;45.656;11.302;2023-07-24T03:24:31;98192.47;;;25.64;55.75
33163;BME280;29282;45.656;11.302;2023-07-24T03:26:57;98175.44;;;25.65;55.56
33163;BME280;29282;45.656;11.302;2023-07-24T03:29:23;98164.34;;;25.65;55.57
33163;BME280;29282;45.656;11.302;2023-07-24T03:31:48;98157.19;;;25.64;55.52
33163;BME280;29282;45.656;11.302;2023-07-24T03:34:14;98150.41;;;25.58;55.88
33163;BME280;29282;45.656;11.302;2023-07-24T03:36:42;98159.94;;;25.61;55.66
33163;BME280;29282;45.656;11.302;2023-07-24T03:39:09;98162.72;;;25.61;55.86
33163;BME280;29282;45.656;11.302;2023-07-24T03:41:35;98175.38;;;25.58;55.90
33163;BME280;29282;45.656;11.302;2023-07-24T03:44:00;98187.25;;;25.55;55.88
33163;BME280;29282;45.656;11.302;2023-07-24T03:46:26;98195.06;;;25.42;56.38
33163;BME280;29282;45.656;11.302;2023-07-24T03:48:51;98188.69;;;25.38;56.52
33163;BME280;29282;45.656;11.302;2023-07-24T03:54:06;98175.31;;;25.47;56.17
33163;BME280;29282;45.656;11.302;2023-07-24T03:56:32;98180.13;;;25.54;55.95
33163;BME280;29282;45.656;11.302;2023-07-24T03:58:57;98175.75;;;25.53;55.89
33163;BME280;29282;45.656;11.302;2023-07-24T04:01:22;98171.81;;;25.58;55.93
33163;BME280;29282;45.656;11.302;2023-07-24T04:03:48;98175.81;;;25.60;55.67
33163;BME280;29282;45.656;11.302;2023-07-24T04:06:13;98182.94;;;25.61;55.56
33163;BME280;29282;45.656;11.302;2023-07-24T04:08:39;98179.41;;;25.64;55.64
33163;BME280;29282;45.656;11.302;2023-07-24T04:11:04;98182.97;;;25.65;55.35
33163;BME280;29282;45.656;11.302;2023-07-24T04:13:30;98189.25;;;25.58;55.80
33163;BME280;29282;45.656;11.302;2023-07-24T04:15:56;98188.06;;;25.59;55.78
33163;BME280;29282;45.656;11.302;2023-07-24T04:18:22;98183.28;;;25.56;55.92
33163;BME280;29282;45.656;11.302;2023-07-24T04:20:48;98203.53;;;25.60;55.85
33163;BME280;29282;45.656;11.302;2023-07-24T04:23:13;98200.38;;;25.62;55.58
33163;BME280;29282;45.656;11.302;2023-07-24T04:25:39;98204.72;;;25.59;55.80
33163;BME280;29282;45.656;11.302;2023-07-24T04:28:04;98192.78;;;25.51;56.27
33163;BME280;29282;45.656;11.302;2023-07-24T04:30:30;98197.09;;;25.49;56.36
33163;BME280;29282;45.656;11.302;2023-07-24T04:32:55;98208.25;;;25.56;55.99
33163;BME280;29282;45.656;11.302;2023-07-24T04:35:20;98222.19;;;25.60;55.87
33163;BME280;29282;45.656;11.302;2023-07-24T04:37:49;98226.13;;;25.62;55.98
33163;BME280;29282;45.656;11.302;2023-07-24T04:40:16;98215.00;;;25.59;56.02
33163;BME280;29282;45.656;11.302;2023-07-24T04:42:42;98212.63;;;25.57;55.91
33163;BME280;29282;45.656;11.302;2023-07-24T04:45:07;98221.34;;;25.59;55.84
33163;BME280;29282;45.656;11.302;2023-07-24T04:47:33;98225.34;;;25.62;55.87
33163;BME280;29282;45.656;11.302;2023-07-24T04:49:58;98226.13;;;25.62;55.72
33163;BME280;29282;45.656;11.302;2023-07-24T04:52:24;98218.59;;;25.63;55.77
33163;BME280;29282;45.656;11.302;2023-07-24T04:54:52;98209.13;;;25.64;55.84
33163;BME280;29282;45.656;11.302;2023-07-24T04:57:18;98221.81;;;25.65;55.70
33163;BME280;29282;45.656;11.302;2023-07-24T04:59:43;98217.84;;;25.66;55.77
33163;BME280;29282;45.656;11.302;2023-07-24T05:02:09;98218.66;;;25.66;55.53
33163;BME280;29282;45.656;11.302;2023-07-24T05:04:34;98219.03;;;25.65;55.71
33163;BME280;29282;45.656;11.302;2023-07-24T05:07:00;98234.09;;;25.64;55.67
33163;BME280;29282;45.656;11.302;2023-07-24T05:09:25;98246.75;;;25.61;56.13
33163;BME280;29282;45.656;11.302;2023-07-24T05:11:51;98258.25;;;25.60;56.35
33163;BME280;29282;45.656;11.302;2023-07-24T05:14:16;98271.31;;;25.63;55.88
33163;BME280;29282;45.656;11.302;2023-07-24T05:16:42;98276.06;;;25.62;56.03
33163;BME280;29282;45.656;11.302;2023-07-24T05:19:07;98281.22;;;25.60;56.04
33163;BME280;29282;45.656;11.302;2023-07-24T05:21:33;98279.63;;;25.59;56.13
33163;BME280;29282;45.656;11.302;2023-07-24T05:23:58;98280.72;;;25.47;56.63
33163;BME280;29282;45.656;11.302;2023-07-24T05:26:24;98276.03;;;25.55;56.49
33163;BME280;29282;45.656;11.302;2023-07-24T05:28:50;98271.28;;;25.59;56.26
33163;BME280;29282;45.656;11.302;2023-07-24T05:31:15;98259.81;;;25.61;56.06
33163;BME280;29282;45.656;11.302;2023-07-24T05:33:40;98240.81;;;25.63;56.08
33163;BME280;29282;45.656;11.302;2023-07-24T05:36:06;98199.19;;;25.63;55.98
33163;BME280;29282;45.656;11.302;2023-07-24T05:38:31;98211.50;;;25.65;55.74
33163;BME280;29282;45.656;11.302;2023-07-24T05:40:57;98224.22;;;25.66;55.79
33163;BME280;29282;45.656;11.302;2023-07-24T05:43:23;98229.75;;;25.66;55.98
33163;BME280;29282;45.656;11.302;2023-07-24T05:45:51;98238.88;;;25.67;55.98
33163;BME280;29282;45.656;11.302;2023-07-24T05:48:17;98214.66;;;25.60;56.44
33163;BME280;29282;45.656;11.302;2023-07-24T05:50:42;98196.38;;;25.59;56.73
33163;BME280;29282;45.656;11.302;2023-07-24T05:53:08;98176.19;;;25.62;56.43
33163;BME280;29282;45.656;11.302;2023-07-24T05:55:33;98178.59;;;25.64;56.33
33163;BME280;29282;45.656;11.302;2023-07-24T05:57:59;98156.41;;;25.64;56.52
33163;BME280;29282;45.656;11.302;2023-07-24T06:00:24;98141.34;;;25.65;56.34
33163;BME280;29282;45.656;11.302;2023-07-24T06:02:49;98158.41;;;25.67;56.27
33163;BME280;29282;45.656;11.302;2023-07-24T06:05:15;98179.41;;;25.68;56.15
33163;BME280;29282;45.656;11.302;2023-07-24T06:07:41;98190.94;;;25.70;56.28
33163;BME280;29282;45.656;11.302;2023-07-24T06:10:07;98194.47;;;25.67;57.01
33163;BME280;29282;45.656;11.302;2023-07-24T06:12:32;98171.41;;;25.59;57.21
33163;BME280;29282;45.656;11.302;2023-07-24T06:14:58;98157.91;;;25.54;57.50
33163;BME280;29282;45.656;11.302;2023-07-24T06:17:23;98174.19;;;25.59;57.06
33163;BME280;29282;45.656;11.302;2023-07-24T06:19:51;98176.19;;;25.62;56.97
33163;BME280;29282;45.656;11.302;2023-07-24T06:22:17;98163.50;;;25.61;57.00
33163;BME280;29282;45.656;11.302;2023-07-24T06:24:42;98153.22;;;25.62;57.25
33163;BME280;29282;45.656;11.302;2023-07-24T06:27:08;98150.00;;;25.56;57.93
33163;BME280;29282;45.656;11.302;2023-07-24T06:29:33;98141.66;;;25.52;57.78
33163;BME280;29282;45.656;11.302;2023-07-24T06:31:59;98137.25;;;25.44;58.71
33163;BME280;29282;45.656;11.302;2023-07-24T06:34:24;98142.84;;;25.51;58.26
33163;BME280;29282;45.656;11.302;2023-07-24T06:36:50;98141.66;;;25.56;58.53
33163;BME280;29282;45.656;11.302;2023-07-24T06:39:15;98134.97;;;25.57;58.66
33163;BME280;29282;45.656;11.302;2023-07-24T06:41:41;98137.72;;;25.57;58.63
33163;BME280;29282;45.656;11.302;2023-07-24T06:44:06;98129.00;;;25.59;58.85
33163;BME280;29282;45.656;11.302;2023-07-24T06:46:32;98133.34;;;25.56;58.98
33163;BME280;29282;45.656;11.302;2023-07-24T06:48:57;98151.59;;;25.57;58.76
33163;BME280;29282;45.656;11.302;2023-07-24T06:51:23;98164.28;;;25.58;58.97
33163;BME280;29282;45.656;11.302;2023-07-24T06:53:48;98159.53;;;25.59;58.58
33163;BME280;29282;45.656;11.302;2023-07-24T06:56:14;98153.22;;;25.62;59.06
33163;BME280;29282;45.656;11.302;2023-07-24T06:58:39;98150.44;;;25.62;59.22
33163;BME280;29282;45.656;11.302;2023-07-24T07:01:06;98142.53;;;25.64;59.42
33163;BME280;29282;45.656;11.302;2023-07-24T07:03:32;98148.91;;;25.68;58.92
33163;BME280;29282;45.656;11.302;2023-07-24T07:06:00;98141.00;;;25.73;59.40
33163;BME280;29282;45.656;11.302;2023-07-24T07:08:26;98159.25;;;25.74;58.90
33163;BME280;29282;45.656;11.302;2023-07-24T07:10:57;98165.97;;;25.73;58.95
33163;BME280;29282;45.656;11.302;2023-07-24T07:13:23;98147.72;;;25.72;59.12
33163;BME280;29282;45.656;11.302;2023-07-24T07:15:48;98123.16;;;25.74;58.69
33163;BME280;29282;45.656;11.302;2023-07-24T07:18:14;98106.94;;;25.76;58.51
33163;BME280;29282;45.656;11.302;2023-07-24T07:20:45;98123.19;;;25.78;58.77
33163;BME280;29282;45.656;11.302;2023-07-24T07:23:12;98137.84;;;25.78;59.16
33163;BME280;29282;45.656;11.302;2023-07-24T07:25:37;98129.53;;;25.78;59.48
33163;BME280;29282;45.656;11.302;2023-07-24T07:28:03;98127.19;;;25.81;58.98
33163;BME280;29282;45.656;11.302;2023-07-24T07:30:28;98141.09;;;25.84;59.26
33163;BME280;29282;45.656;11.302;2023-07-24T07:32:54;98164.09;;;25.88;59.22
33163;BME280;29282;45.656;11.302;2023-07-24T07:35:19;98174.03;;;25.89;59.17
33163;BME280;29282;45.656;11.302;2023-07-24T07:37:45;98178.78;;;25.89;59.29
33163;BME280;29282;45.656;11.302;2023-07-24T07:40:11;98184.75;;;25.91;59.09
33163;BME280;29282;45.656;11.302;2023-07-24T07:42:37;98211.31;;;25.92;59.00
33163;BME280;29282;45.656;11.302;2023-07-24T07:45:06;98212.09;;;25.92;58.97
33163;BME280;29282;45.656;11.302;2023-07-24T07:47:31;98221.25;;;25.93;58.79
33163;BME280;29282;45.656;11.302;2023-07-24T07:49:57;98224.03;;;25.93;58.83
33163;BME280;29282;45.656;11.302;2023-07-24T07:52:22;98100.28;;;25.92;58.58
33163;BME280;29282;45.656;11.302;2023-07-24T07:54:48;98064.19;;;25.92;58.62
33163;BME280;29282;45.656;11.302;2023-07-24T07:57:14;98117.34;;;25.94;58.71
33163;BME280;29282;45.656;11.302;2023-07-24T07:59:40;98084.84;;;25.94;58.79
33163;BME280;29282;45.656;11.302;2023-07-24T08:02:06;98076.53;;;25.98;58.74
33163;BME280;29282;45.656;11.302;2023-07-24T08:04:31;98079.72;;;25.96;58.62
33163;BME280;29282;45.656;11.302;2023-07-24T08:06:57;98067.00;;;25.99;58.72
33163;BME280;29282;45.656;11.302;2023-07-24T08:09:23;98064.22;;;25.99;58.74
33163;BME280;29282;45.656;11.302;2023-07-24T08:11:50;98048.38;;;25.99;58.59
33163;BME280;29282;45.656;11.302;2023-07-24T08:14:17;98046.41;;;26.00;58.37
33163;BME280;29282;45.656;11.302;2023-07-24T08:16:42;98062.66;;;26.01;58.37
33163;BME280;29282;45.656;11.302;2023-07-24T08:19:08;98078.53;;;26.01;58.52
33163;BME280;29282;45.656;11.302;2023-07-24T08:21:33;98076.16;;;26.03;58.63
33163;BME280;29282;45.656;11.302;2023-07-24T08:23:59;98048.00;;;26.01;58.38
33163;BME280;29282;45.656;11.302;2023-07-24T08:26:27;98014.69;;;26.01;58.32
33163;BME280;29282;45.656;11.302;2023-07-24T08:28:52;98002.78;;;26.00;58.23
33163;BME280;29282;45.656;11.302;2023-07-24T08:31:18;97984.94;;;26.01;58.18
33163;BME280;29282;45.656;11.302;2023-07-24T08:33:43;97993.66;;;26.04;58.15
33163;BME280;29282;45.656;11.302;2023-07-24T08:36:09;98016.66;;;26.04;58.33
33163;BME280;29282;45.656;11.302;2023-07-24T08:38:40;98029.34;;;26.05;58.15
33163;BME280;29282;45.656;11.302;2023-07-24T08:41:11;98087.66;;;26.05;58.24
33163;BME280;29282;45.656;11.302;2023-07-24T08:43:38;98151.13;;;26.07;58.07
33163;BME280;29282;45.656;11.302;2023-07-24T08:46:05;98174.13;;;26.07;58.45
33163;BME280;29282;45.656;11.302;2023-07-24T08:48:33;98124.16;;;26.07;58.41
33163;BME280;29282;45.656;11.302;2023-07-24T08:51:09;98108.69;;;26.06;58.56
33163;BME280;29282;45.656;11.302;2023-07-24T08:53:36;98090.44;;;26.05;58.43
33163;BME280;29282;45.656;11.302;2023-07-24T08:56:12;98101.94;;;26.07;58.53
33163;BME280;29282;45.656;11.302;2023-07-24T08:58:38;98107.50;;;26.07;58.26
33163;BME280;29282;45.656;11.302;2023-07-24T09:01:05;98115.84;;;26.07;58.33
33163;BME280;29282;45.656;11.302;2023-07-24T09:03:32;98116.22;;;26.09;58.29
33163;BME280;29282;45.656;11.302;2023-07-24T09:05:58;98113.44;;;26.09;58.28
33163;BME280;29282;45.656;11.302;2023-07-24T09:08:34;98112.28;;;26.10;58.12
33163;BME280;29282;45.656;11.302;2023-07-24T09:11:00;98109.50;;;26.10;58.39
33163;BME280;29282;45.656;11.302;2023-07-24T09:13:27;98113.84;;;26.11;58.19
33163;BME280;29282;45.656;11.302;2023-07-24T09:15:53;98116.63;;;26.11;58.15
33163;BME280;29282;45.656;11.302;2023-07-24T09:18:19;98105.53;;;26.11;58.08
33163;BME280;29282;45.656;11.302;2023-07-24T09:20:44;98102.75;;;26.11;58.27
33163;BME280;29282;45.656;11.302;2023-07-24T09:23:12;98098.78;;;26.12;58.35
33163;BME280;29282;45.656;11.302;2023-07-24T09:25:39;98093.22;;;26.12;58.56
33163;BME280;29282;45.656;11.302;2023-07-24T09:28:15;98092.44;;;26.12;58.21
33163;BME280;29282;45.656;11.302;2023-07-24T09:30:42;98093.22;;;26.12;58.15
33163;BME280;29282;45.656;11.302;2023-07-24T09:33:09;98150.75;;;26.15;58.45
33163;BME280;29282;45.656;11.302;2023-07-24T09:35:34;98193.22;;;26.16;58.17
33163;BME280;29282;45.656;11.302;2023-07-24T09:38:04;98176.94;;;26.14;58.13
33163;BME280;29282;45.656;11.302;2023-07-24T09:40:38;98194.41;;;26.15;58.17
33163;BME280;29282;45.656;11.302;2023-07-24T09:43:17;98193.59;;;26.14;58.19
33163;BME280;29282;45.656;11.302;2023-07-24T09:45:43;98194.41;;;26.15;58.12
33163;BME280;29282;45.656;11.302;2023-07-24T09:48:12;98188.06;;;26.14;58.12
33163;BME280;29282;45.656;11.302;2023-07-24T09:50:44;98169.41;;;26.15;58.42
33163;BME280;29282;45.656;11.302;2023-07-24T09:56:06;98168.19;;;26.12;58.04
33163;BME280;29282;45.656;11.302;2023-07-24T09:58:36;98183.69;;;26.13;58.10
33163;BME280;29282;45.656;11.302;2023-07-24T10:01:03;98206.28;;;26.15;58.06
33163;BME280;29282;45.656;11.302;2023-07-24T10:03:33;98212.25;;;26.14;57.95
33163;BME280;29282;45.656;11.302;2023-07-24T10:06:02;98217.00;;;26.13;58.04
33163;BME280;29282;45.656;11.302;2023-07-24T10:08:28;98181.72;;;26.14;58.27
33163;BME280;29282;45.656;11.302;2023-07-24T10:10:54;98155.94;;;26.13;58.19
33163;BME280;29282;45.656;11.302;2023-07-24T10:13:21;98127.38;;;26.13;57.97
33163;BME280;29282;45.656;11.302;2023-07-24T10:15:48;98130.94;;;26.13;58.10
33163;BME280;29282;45.656;11.302;2023-07-24T10:18:16;98122.59;;;26.13;58.43
33163;BME280;29282;45.656;11.302;2023-07-24T10:20:43;98103.16;;;26.13;58.23
33163;BME280;29282;45.656;11.302;2023-07-24T10:23:10;98042.88;;;26.10;58.02
33163;BME280;29282;45.656;11.302;2023-07-24T10:25:38;98036.53;;;26.10;57.86
33163;BME280;29282;45.656;11.302;2023-07-24T10:28:07;98057.91;;;26.09;58.15
33163;BME280;29282;45.656;11.302;2023-07-24T10:30:37;98060.31;;;26.11;57.89
33163;BME280;29282;45.656;11.302;2023-07-24T10:33:04;98052.78;;;26.11;58.09
33163;BME280;29282;45.656;11.302;2023-07-24T10:36:02;98054.75;;;26.11;58.13
33163;BME280;29282;45.656;11.302;2023-07-24T10:38:34;98019.88;;;26.10;58.09
33163;BME280;29282;45.656;11.302;2023-07-24T10:41:02;98014.31;;;26.10;57.78
33163;BME280;29282;45.656;11.302;2023-07-24T10:43:29;98017.88;;;26.10;57.66
33163;BME280;29282;45.656;11.302;2023-07-24T10:45:54;97994.06;;;26.09;57.81
33163;BME280;29282;45.656;11.302;2023-07-24T10:48:24;97990.13;;;26.10;57.95
33163;BME280;29282;45.656;11.302;2023-07-24T10:50:51;97985.72;;;26.09;57.85
33163;BME280;29282;45.656;11.302;2023-07-24T10:53:19;97995.66;;;26.10;57.93
33163;BME280;29282;45.656;11.302;2023-07-24T10:55:46;98007.56;;;26.11;57.82
33163;BME280;29282;45.656;11.302;2023-07-24T10:58:13;98001.22;;;26.10;57.96
33163;BME280;29282;45.656;11.302;2023-07-24T11:00:43;98010.34;;;26.11;57.77
33163;BME280;29282;45.656;11.302;2023-07-24T11:03:13;98009.13;;;26.12;57.72
33163;BME280;29282;45.656;11.302;2023-07-24T11:05:45;97985.75;;;26.13;58.17
33163;BME280;29282;45.656;11.302;2023-07-24T11:08:15;97962.72;;;26.12;57.80
33163;BME280;29282;45.656;11.302;2023-07-24T11:10:48;97941.72;;;26.11;58.16
33163;BME280;29282;45.656;11.302;2023-07-24T11:13:15;97952.81;;;26.11;57.93
33163;BME280;29282;45.656;11.302;2023-07-24T11:15:40;97945.28;;;26.12;58.21
33163;BME280;29282;45.656;11.302;2023-07-24T11:18:06;97945.28;;;26.12;57.84
33163;BME280;29282;45.656;11.302;2023-07-24T11:20:44;97962.72;;;26.12;58.01
33163;BME280;29282;45.656;11.302;2023-07-24T11:23:10;97991.69;;;26.11;58.10
33163;BME280;29282;45.656;11.302;2023-07-24T11:25:37;98007.16;;;26.12;57.80
33163;BME280;29282;45.656;11.302;2023-07-24T11:28:05;98011.13;;;26.11;57.96
33163;BME280;29282;45.656;11.302;2023-07-24T11:30:31;97996.88;;;26.13;58.11
33163;BME280;29282;45.656;11.302;2023-07-24T11:32:57;97966.72;;;26.11;58.12
33163;BME280;29282;45.656;11.302;2023-07-24T11:35:25;97987.34;;;26.10;57.90
33163;BME280;29282;45.656;11.302;2023-07-24T11:37:51;97985.34;;;26.11;57.90
33163;BME280;29282;45.656;11.302;2023-07-24T11:40:18;97983.38;;;26.11;57.84
33163;BME280;29282;45.656;11.302;2023-07-24T11:42:46;97990.13;;;26.10;57.80
33163;BME280;29282;45.656;11.302;2023-07-24T11:45:14;97982.56;;;26.11;58.15
33163;BME280;29282;45.656;11.302;2023-07-24T11:47:50;97986.56;;;26.10;57.92
33163;BME280;29282;45.656;11.302;2023-07-24T11:50:16;97994.06;;;26.09;58.04
33163;BME280;29282;45.656;11.302;2023-07-24T11:52:48;97982.94;;;26.09;58.03
33163;BME280;29282;45.656;11.302;2023-07-24T11:55:19;97944.09;;;26.09;58.12
33163;BME280;29282;45.656;11.302;2023-07-24T11:57:55;97894.53;;;26.08;57.99
33163;BME280;29282;45.656;11.302;2023-07-24T12:00:23;97943.28;;;26.09;58.11
33163;BME280;29282;45.656;11.302;2023-07-24T12:02:50;98052.78;;;26.11;58.01
33163;BME280;29282;45.656;11.302;2023-07-24T12:05:18;98027.78;;;26.11;58.00
33163;BME280;29282;45.656;11.302;2023-07-24T12:07:44;97981.78;;;26.10;58.07
33163;BME280;29282;45.656;11.302;2023-07-24T12:10:12;97975.81;;;26.08;58.13
33163;BME280;29282;45.656;11.302;2023-07-24T12:12:45;97984.94;;;26.09;57.86
33163;BME280;29282;45.656;11.302;2023-07-24T12:15:14;97946.88;;;26.09;57.98
33163;BME280;29282;45.656;11.302;2023-07-24T12:17:40;97930.59;;;26.08;58.13
33163;BME280;29282;45.656;11.302;2023-07-24T12:20:07;97922.28;;;26.08;58.12
33163;BME280;29282;45.656;11.302;2023-07-24T12:22:38;97932.97;;;26.09;57.90
33163;BME280;29282;45.656;11.302;2023-07-24T12:25:05;97918.31;;;26.09;57.90
33163;BME280;29282;45.656;11.302;2023-07-24T12:27:31;97908.00;;;26.09;57.75
33163;BME280;29282;45.656;11.302;2023-07-24T12:29:57;97892.16;;;26.10;58.11
33163;BME280;29282;45.656;11.302;2023-07-24T12:32:22;97867.53;;;26.08;57.67
33163;BME280;29282;45.656;11.302;2023-07-24T12:34:49;97830.25;;;26.09;58.14
33163;BME280;29282;45.656;11.302;2023-07-24T12:37:19;97821.13;;;26.09;57.94
33163;BME280;29282;45.656;11.302;2023-07-24T12:39:46;97792.59;;;26.08;58.21
33163;BME280;29282;45.656;11.302;2023-07-24T12:42:12;97796.94;;;26.09;58.06
33163;BME280;29282;45.656;11.302;2023-07-24T12:44:38;97818.38;;;26.09;57.96
33163;BME280;29282;45.656;11.302;2023-07-24T12:47:07;97854.06;;;26.10;57.92
33163;BME280;29282;45.656;11.302;2023-07-24T12:49:32;97844.97;;;26.10;57.98
33163;BME280;29282;45.656;11.302;2023-07-24T12:51:58;97848.53;;;26.10;57.82
33163;BME280;29282;45.656;11.302;2023-07-24T12:54:24;97861.63;;;26.10;58.12
33163;BME280;29282;45.656;11.302;2023-07-24T12:56:50;97866.34;;;26.09;57.82